sensor_id;sensor_type;location;lat;lon;timestamp;P1;durP1;ratioP1;P2;durP2;ratioP2
22812;SDS011;11573;51.334;3.244;2023-04-25T00:01:14;20.23;;;4.45;;
22812;SDS011;11573;51.334;3.244;2023-04-25T00:03:42;19.05;;;4.18;;
22812;SDS011;11573;51.334;3.244;2023-04-25T00:06:09;23.88;;;4.75;;
22812;SDS011;11573;51.334;3.244;2023-04-25T00:08:36;22.23;;;4.72;;
22812;SDS011;11573;51.334;3.244;2023-04-25T00:11:03;25.80;;;4.18;;
22812;SDS011;11573;51.334;3.244;2023-04-25T00:13:31;18.27;;;3.92;;
22812;SDS011;11573;51.334;3.244;2023-04-25T00:15:58;27.25;;;4.43;;
22812;SDS011;11573;51.334;3.244;2023-04-25T00:18:26;19.00;;;5.00;;
22812;SDS011;11573;51.334;3.244;2023-04-25T00:20:55;19.95;;;4.85;;
22812;SDS011;11573;51.334;3.244;2023-04-25T00:23:22;15.10;;;4.65;;
22812;SDS011;11573;51.334;3.244;2023-04-25T00:25:50;20.55;;;3.95;;
22812;SDS011;11573;51.334;3.244;2023-04-25T00:28:17;16.38;;;4.93;;
22812;SDS011;11573;51.334;3.244;2023-04-25T00:30:44;22.55;;;4.72;;
22812;SDS011;11573;51.334;3.244;2023-04-25T00:33:11;17.38;;;4.53;;
22812;SDS011;11573;51.334;3.244;2023-04-25T00:35:38;19.65;;;5.10;;
22812;SDS011;11573;51.334;3.244;2023-04-25T00:38:05;22.60;;;5.47;;
22812;SDS011;11573;51.334;3.244;2023-04-25T00:40:32;25.48;;;5.07;;
22812;SDS011;11573;51.334;3.244;2023-04-25T00:43:00;23.83;;;5.55;;
22812;SDS011;11573;51.334;3.244;2023-04-25T00:45:28;20.85;;;4.50;;
22812;SDS011;11573;51.334;3.244;2023-04-25T00:47:56;29.45;;;6.10;;
22812;SDS011;11573;51.334;3.244;2023-04-25T00:50:23;22.60;;;6.03;;
22812;SDS011;11573;51.334;3.244;2023-04-25T00:52:50;27.70;;;5.28;;
22812;SDS011;11573;51.334;3.244;2023-04-25T00:55:18;25.95;;;4.75;;
22812;SDS011;11573;51.334;3.244;2023-04-25T00:57:46;17.52;;;5.57;;
22812;SDS011;11573;51.334;3.244;2023-04-25T01:00:14;22.33;;;5.63;;
22812;SDS011;11573;51.334;3.244;2023-04-25T01:02:42;22.77;;;5.28;;
22812;SDS011;11573;51.334;3.244;2023-04-25T01:05:11;28.55;;;5.75;;
22812;SDS011;11573;51.334;3.244;2023-04-25T01:07:38;27.63;;;5.70;;
22812;SDS011;11573;51.334;3.244;2023-04-25T01:10:07;16.75;;;4.60;;
22812;SDS011;11573;51.334;3.244;2023-04-25T01:12:34;15.95;;;4.72;;
22812;SDS011;11573;51.334;3.244;2023-04-25T01:15:01;20.20;;;4.00;;
22812;SDS011;11573;51.334;3.244;2023-04-25T01:17:29;19.77;;;4.05;;
22812;SDS011;11573;51.334;3.244;2023-04-25T01:19:56;23.20;;;5.78;;
22812;SDS011;11573;51.334;3.244;2023-04-25T01:22:23;16.90;;;4.38;;
22812;SDS011;11573;51.334;3.244;2023-04-25T01:24:50;18.60;;;4.03;;
22812;SDS011;11573;51.334;3.244;2023-04-25T01:27:17;29.60;;;6.25;;
22812;SDS011;11573;51.334;3.244;2023-04-25T01:29:45;17.70;;;4.15;;
22812;SDS011;11573;51.334;3.244;2023-04-25T01:32:13;17.35;;;3.92;;
22812;SDS011;11573;51.334;3.244;2023-04-25T01:34:41;20.52;;;4.15;;
22812;SDS011;11573;51.334;3.244;2023-04-25T01:37:08;25.50;;;3.65;;
22812;SDS011;11573;51.334;3.244;2023-04-25T01:39:35;24.90;;;4.68;;
22812;SDS011;11573;51.334;3.244;2023-04-25T01:42:04;27.83;;;5.35;;
22812;SDS011;11573;51.334;3.244;2023-04-25T01:44:31;23.60;;;5.00;;
22812;SDS011;11573;51.334;3.244;2023-04-25T01:46:58;21.17;;;4.32;;
22812;SDS011;11573;51.334;3.244;2023-04-25T01:49:27;28.38;;;5.03;;
22812;SDS011;11573;51.334;3.244;2023-04-25T01:51:54;19.45;;;4.63;;
22812;SDS011;11573;51.334;3.244;2023-04-25T01:54:21;19.20;;;4.22;;
22812;SDS011;11573;51.334;3.244;2023-04-25T01:56:51;26.45;;;5.32;;
22812;SDS011;11573;51.334;3.244;2023-04-25T01:59:20;15.02;;;3.60;;
22812;SDS011;11573;51.334;3.244;2023-04-25T02:02:03;22.80;;;5.00;;
22812;SDS011;11573;51.334;3.244;2023-04-25T02:04:32;26.42;;;4.75;;
22812;SDS011;11573;51.334;3.244;2023-04-25T02:07:00;28.52;;;5.22;;
22812;SDS011;11573;51.334;3.244;2023-04-25T02:09:37;28.70;;;5.38;;
22812;SDS011;11573;51.334;3.244;2023-04-25T02:12:07;42.60;;;6.30;;
22812;SDS011;11573;51.334;3.244;2023-04-25T02:14:54;27.13;;;5.28;;
22812;SDS011;11573;51.334;3.244;2023-04-25T02:18:00;20.33;;;5.90;;
22812;SDS011;11573;51.334;3.244;2023-04-25T02:20:28;22.00;;;5.35;;
22812;SDS011;11573;51.334;3.244;2023-04-25T02:22:56;26.50;;;5.85;;
22812;SDS011;11573;51.334;3.244;2023-04-25T02:25:23;33.13;;;7.10;;
22812;SDS011;11573;51.334;3.244;2023-04-25T02:27:50;23.02;;;5.57;;
22812;SDS011;11573;51.334;3.244;2023-04-25T02:30:18;35.95;;;6.10;;
22812;SDS011;11573;51.334;3.244;2023-04-25T02:32:45;27.25;;;5.57;;
22812;SDS011;11573;51.334;3.244;2023-04-25T02:35:12;24.17;;;5.15;;
22812;SDS011;11573;51.334;3.244;2023-04-25T02:37:40;21.83;;;4.82;;
22812;SDS011;11573;51.334;3.244;2023-04-25T02:40:07;26.60;;;5.13;;
22812;SDS011;11573;51.334;3.244;2023-04-25T02:42:35;24.98;;;4.85;;
22812;SDS011;11573;51.334;3.244;2023-04-25T02:45:02;12.65;;;3.35;;
22812;SDS011;11573;51.334;3.244;2023-04-25T02:47:29;15.77;;;4.03;;
22812;SDS011;11573;51.334;3.244;2023-04-25T02:49:57;24.50;;;3.85;;
22812;SDS011;11573;51.334;3.244;2023-04-25T02:52:24;21.00;;;3.97;;
22812;SDS011;11573;51.334;3.244;2023-04-25T02:54:58;14.85;;;3.58;;
22812;SDS011;11573;51.334;3.244;2023-04-25T02:57:27;14.00;;;3.95;;
22812;SDS011;11573;51.334;3.244;2023-04-25T02:59:55;16.05;;;3.63;;
22812;SDS011;11573;51.334;3.244;2023-04-25T03:02:22;18.73;;;3.40;;
22812;SDS011;11573;51.334;3.244;2023-04-25T03:04:49;18.42;;;3.83;;
22812;SDS011;11573;51.334;3.244;2023-04-25T03:07:16;18.17;;;3.67;;
22812;SDS011;11573;51.334;3.244;2023-04-25T03:09:43;19.48;;;3.50;;
22812;SDS011;11573;51.334;3.244;2023-04-25T03:12:11;16.35;;;3.00;;
22812;SDS011;11573;51.334;3.244;2023-04-25T03:14:38;19.75;;;3.78;;
22812;SDS011;11573;51.334;3.244;2023-04-25T03:17:05;11.35;;;2.97;;
22812;SDS011;11573;51.334;3.244;2023-04-25T03:19:34;11.55;;;3.08;;
22812;SDS011;11573;51.334;3.244;2023-04-25T03:22:01;16.13;;;2.92;;
22812;SDS011;11573;51.334;3.244;2023-04-25T03:24:28;13.10;;;2.75;;
22812;SDS011;11573;51.334;3.244;2023-04-25T03:26:55;13.65;;;3.42;;
22812;SDS011;11573;51.334;3.244;2023-04-25T03:29:22;11.88;;;3.03;;
22812;SDS011;11573;51.334;3.244;2023-04-25T03:31:54;15.77;;;3.67;;
22812;SDS011;11573;51.334;3.244;2023-04-25T03:34:21;11.70;;;3.22;;
22812;SDS011;11573;51.334;3.244;2023-04-25T03:36:49;14.95;;;3.83;;
22812;SDS011;11573;51.334;3.244;2023-04-25T03:39:16;13.80;;;3.60;;
22812;SDS011;11573;51.334;3.244;2023-04-25T03:41:47;18.10;;;3.08;;
22812;SDS011;11573;51.334;3.244;2023-04-25T03:44:16;14.82;;;2.90;;
22812;SDS011;11573;51.334;3.244;2023-04-25T03:46:44;16.42;;;3.22;;
22812;SDS011;11573;51.334;3.244;2023-04-25T03:49:11;19.20;;;3.13;;
22812;SDS011;11573;51.334;3.244;2023-04-25T03:52:07;20.60;;;3.63;;
22812;SDS011;11573;51.334;3.244;2023-04-25T03:54:38;13.02;;;2.92;;
22812;SDS011;11573;51.334;3.244;2023-04-25T03:57:09;19.55;;;3.17;;
22812;SDS011;11573;51.334;3.244;2023-04-25T03:59:38;14.32;;;3.03;;
22812;SDS011;11573;51.334;3.244;2023-04-25T04:02:08;17.02;;;3.13;;
22812;SDS011;11573;51.334;3.244;2023-04-25T04:04:35;12.48;;;3.25;;
22812;SDS011;11573;51.334;3.244;2023-04-25T04:07:03;17.17;;;3.67;;
22812;SDS011;11573;51.334;3.244;2023-04-25T04:09:34;18.55;;;3.28;;
22812;SDS011;11573;51.334;3.244;2023-04-25T04:12:06;13.85;;;3.22;;
22812;SDS011;11573;51.334;3.244;2023-04-25T04:14:34;18.50;;;3.40;;
22812;SDS011;11573;51.334;3.244;2023-04-25T04:17:01;19.88;;;3.33;;
22812;SDS011;11573;51.334;3.244;2023-04-25T04:19:29;16.95;;;3.20;;
22812;SDS011;11573;51.334;3.244;2023-04-25T04:22:09;17.85;;;3.15;;
22812;SDS011;11573;51.334;3.244;2023-04-25T04:24:39;22.08;;;3.45;;
22812;SDS011;11573;51.334;3.244;2023-04-25T04:27:07;10.88;;;2.17;;
22812;SDS011;11573;51.334;3.244;2023-04-25T04:29:44;12.77;;;2.90;;
22812;SDS011;11573;51.334;3.244;2023-04-25T04:32:24;16.13;;;4.30;;
22812;SDS011;11573;51.334;3.244;2023-04-25T04:34:53;19.60;;;3.20;;
22812;SDS011;11573;51.334;3.244;2023-04-25T04:37:24;13.02;;;3.72;;
22812;SDS011;11573;51.334;3.244;2023-04-25T04:39:51;18.00;;;4.35;;
22812;SDS011;11573;51.334;3.244;2023-04-25T04:42:25;16.15;;;3.05;;
22812;SDS011;11573;51.334;3.244;2023-04-25T04:45:12;14.68;;;3.15;;
22812;SDS011;11573;51.334;3.244;2023-04-25T04:47:56;16.45;;;2.70;;
22812;SDS011;11573;51.334;3.244;2023-04-25T04:50:43;20.55;;;3.75;;
22812;SDS011;11573;51.334;3.244;2023-04-25T04:53:24;17.15;;;2.72;;
22812;SDS011;11573;51.334;3.244;2023-04-25T04:56:12;16.27;;;3.15;;
22812;SDS011;11573;51.334;3.244;2023-04-25T04:58:58;10.88;;;2.15;;
22812;SDS011;11573;51.334;3.244;2023-04-25T05:01:44;15.95;;;2.92;;
22812;SDS011;11573;51.334;3.244;2023-04-25T05:04:16;16.02;;;3.20;;
22812;SDS011;11573;51.334;3.244;2023-04-25T05:07:16;16.23;;;2.88;;
22812;SDS011;11573;51.334;3.244;2023-04-25T05:09:58;15.77;;;2.95;;
22812;SDS011;11573;51.334;3.244;2023-04-25T05:13:04;14.70;;;3.10;;
22812;SDS011;11573;51.334;3.244;2023-04-25T05:15:51;9.18;;;2.30;;
22812;SDS011;11573;51.334;3.244;2023-04-25T05:18:33;10.38;;;2.45;;
22812;SDS011;11573;51.334;3.244;2023-04-25T05:21:18;14.63;;;2.05;;
22812;SDS011;11573;51.334;3.244;2023-04-25T05:24:06;8.52;;;2.03;;
22812;SDS011;11573;51.334;3.244;2023-04-25T05:26:33;8.35;;;2.20;;
22812;SDS011;11573;51.334;3.244;2023-04-25T05:29:13;13.63;;;2.22;;
22812;SDS011;11573;51.334;3.244;2023-04-25T05:32:01;14.40;;;2.35;;
22812;SDS011;11573;51.334;3.244;2023-04-25T05:34:28;13.55;;;2.45;;
22812;SDS011;11573;51.334;3.244;2023-04-25T05:36:59;13.52;;;2.00;;
22812;SDS011;11573;51.334;3.244;2023-04-25T05:39:28;13.65;;;2.58;;
22812;SDS011;11573;51.334;3.244;2023-04-25T05:42:34;7.13;;;1.92;;
22812;SDS011;11573;51.334;3.244;2023-04-25T05:45:21;13.10;;;2.40;;
22812;SDS011;11573;51.334;3.244;2023-04-25T05:48:17;16.75;;;2.83;;
22812;SDS011;11573;51.334;3.244;2023-04-25T05:51:13;11.63;;;2.47;;
22812;SDS011;11573;51.334;3.244;2023-04-25T05:53:57;10.15;;;2.22;;
22812;SDS011;11573;51.334;3.244;2023-04-25T05:56:25;16.58;;;2.75;;
22812;SDS011;11573;51.334;3.244;2023-04-25T05:58:53;13.57;;;2.25;;
22812;SDS011;11573;51.334;3.244;2023-04-25T06:01:21;17.73;;;3.08;;
22812;SDS011;11573;51.334;3.244;2023-04-25T06:03:49;13.80;;;2.65;;
22812;SDS011;11573;51.334;3.244;2023-04-25T06:06:18;8.23;;;2.47;;
22812;SDS011;11573;51.334;3.244;2023-04-25T06:08:46;11.98;;;2.20;;
22812;SDS011;11573;51.334;3.244;2023-04-25T06:11:13;13.45;;;2.40;;
22812;SDS011;11573;51.334;3.244;2023-04-25T06:13:40;13.20;;;2.03;;
22812;SDS011;11573;51.334;3.244;2023-04-25T06:16:08;11.60;;;2.53;;
22812;SDS011;11573;51.334;3.244;2023-04-25T06:18:35;13.65;;;3.30;;
22812;SDS011;11573;51.334;3.244;2023-04-25T06:21:03;11.23;;;2.50;;
22812;SDS011;11573;51.334;3.244;2023-04-25T06:23:31;14.90;;;3.00;;
22812;SDS011;11573;51.334;3.244;2023-04-25T06:26:03;10.85;;;2.30;;
22812;SDS011;11573;51.334;3.244;2023-04-25T06:28:32;9.52;;;2.13;;
22812;SDS011;11573;51.334;3.244;2023-04-25T06:30:59;13.40;;;2.55;;
22812;SDS011;11573;51.334;3.244;2023-04-25T06:33:28;14.95;;;2.67;;
22812;SDS011;11573;51.334;3.244;2023-04-25T06:35:56;11.70;;;2.58;;
22812;SDS011;11573;51.334;3.244;2023-04-25T06:38:25;11.13;;;2.30;;
22812;SDS011;11573;51.334;3.244;2023-04-25T06:40:55;18.27;;;3.00;;
22812;SDS011;11573;51.334;3.244;2023-04-25T06:43:22;6.72;;;2.38;;
22812;SDS011;11573;51.334;3.244;2023-04-25T06:46:10;15.40;;;2.40;;
22812;SDS011;11573;51.334;3.244;2023-04-25T06:48:42;12.32;;;2.63;;
22812;SDS011;11573;51.334;3.244;2023-04-25T06:51:10;13.43;;;2.83;;
22812;SDS011;11573;51.334;3.244;2023-04-25T06:53:38;13.02;;;2.33;;
22812;SDS011;11573;51.334;3.244;2023-04-25T06:56:08;9.45;;;2.03;;
22812;SDS011;11573;51.334;3.244;2023-04-25T06:59:00;14.75;;;2.35;;
22812;SDS011;11573;51.334;3.244;2023-04-25T07:01:31;12.10;;;2.40;;
22812;SDS011;11573;51.334;3.244;2023-04-25T07:04:00;14.30;;;1.98;;
22812;SDS011;11573;51.334;3.244;2023-04-25T07:06:30;12.63;;;2.33;;
22812;SDS011;11573;51.334;3.244;2023-04-25T07:08:57;11.80;;;2.47;;
22812;SDS011;11573;51.334;3.244;2023-04-25T07:11:24;14.13;;;2.72;;
22812;SDS011;11573;51.334;3.244;2023-04-25T07:13:52;16.88;;;2.83;;
22812;SDS011;11573;51.334;3.244;2023-04-25T07:16:19;7.88;;;2.08;;
22812;SDS011;11573;51.334;3.244;2023-04-25T07:18:46;11.82;;;2.03;;
22812;SDS011;11573;51.334;3.244;2023-04-25T07:21:13;16.00;;;2.72;;
22812;SDS011;11573;51.334;3.244;2023-04-25T07:23:43;12.95;;;2.25;;
22812;SDS011;11573;51.334;3.244;2023-04-25T07:26:14;15.00;;;2.47;;
22812;SDS011;11573;51.334;3.244;2023-04-25T07:29:01;10.40;;;2.38;;
22812;SDS011;11573;51.334;3.244;2023-04-25T07:31:29;19.35;;;2.65;;
22812;SDS011;11573;51.334;3.244;2023-04-25T07:33:57;12.88;;;2.20;;
22812;SDS011;11573;51.334;3.244;2023-04-25T07:36:27;17.25;;;2.80;;
22812;SDS011;11573;51.334;3.244;2023-04-25T07:38:54;10.35;;;2.50;;
22812;SDS011;11573;51.334;3.244;2023-04-25T07:41:21;9.20;;;2.30;;
22812;SDS011;11573;51.334;3.244;2023-04-25T07:43:48;11.93;;;2.72;;
22812;SDS011;11573;51.334;3.244;2023-04-25T07:46:16;12.27;;;2.70;;
22812;SDS011;11573;51.334;3.244;2023-04-25T07:48:43;11.80;;;2.60;;
22812;SDS011;11573;51.334;3.244;2023-04-25T07:51:10;14.82;;;2.20;;
22812;SDS011;11573;51.334;3.244;2023-04-25T07:53:38;8.95;;;1.85;;
22812;SDS011;11573;51.334;3.244;2023-04-25T07:56:11;14.57;;;2.47;;
22812;SDS011;11573;51.334;3.244;2023-04-25T07:58:41;8.38;;;1.95;;
22812;SDS011;11573;51.334;3.244;2023-04-25T08:01:11;9.15;;;2.15;;
22812;SDS011;11573;51.334;3.244;2023-04-25T08:03:55;10.15;;;1.90;;
22812;SDS011;11573;51.334;3.244;2023-04-25T08:06:34;8.32;;;1.67;;
22812;SDS011;11573;51.334;3.244;2023-04-25T08:09:10;10.32;;;1.92;;
22812;SDS011;11573;51.334;3.244;2023-04-25T08:11:40;9.23;;;1.90;;
22812;SDS011;11573;51.334;3.244;2023-04-25T08:14:10;6.20;;;2.33;;
22812;SDS011;11573;51.334;3.244;2023-04-25T08:16:39;4.38;;;1.38;;
22812;SDS011;11573;51.334;3.244;2023-04-25T08:19:06;11.05;;;1.80;;
22812;SDS011;11573;51.334;3.244;2023-04-25T08:21:34;12.85;;;1.92;;
22812;SDS011;11573;51.334;3.244;2023-04-25T08:24:05;5.13;;;1.73;;
22812;SDS011;11573;51.334;3.244;2023-04-25T08:26:35;6.55;;;2.10;;
22812;SDS011;11573;51.334;3.244;2023-04-25T08:29:05;11.85;;;2.63;;
22812;SDS011;11573;51.334;3.244;2023-04-25T08:31:36;10.15;;;2.10;;
22812;SDS011;11573;51.334;3.244;2023-04-25T08:34:05;7.30;;;2.20;;
22812;SDS011;11573;51.334;3.244;2023-04-25T08:36:42;6.68;;;1.95;;
22812;SDS011;11573;51.334;3.244;2023-04-25T08:39:32;5.88;;;1.88;;
22812;SDS011;11573;51.334;3.244;2023-04-25T08:42:26;11.23;;;2.80;;
22812;SDS011;11573;51.334;3.244;2023-04-25T08:44:55;9.45;;;2.28;;
22812;SDS011;11573;51.334;3.244;2023-04-25T08:47:30;8.68;;;1.85;;
22812;SDS011;11573;51.334;3.244;2023-04-25T08:50:02;12.13;;;2.60;;
22812;SDS011;11573;51.334;3.244;2023-04-25T08:52:30;11.80;;;2.30;;
22812;SDS011;11573;51.334;3.244;2023-04-25T08:55:02;7.38;;;2.00;;
22812;SDS011;11573;51.334;3.244;2023-04-25T08:57:32;8.77;;;1.92;;
22812;SDS011;11573;51.334;3.244;2023-04-25T09:00:01;8.85;;;2.15;;
22812;SDS011;11573;51.334;3.244;2023-04-25T09:02:32;10.95;;;1.83;;
22812;SDS011;11573;51.334;3.244;2023-04-25T09:05:01;12.98;;;1.92;;
22812;SDS011;11573;51.334;3.244;2023-04-25T09:07:30;8.07;;;2.05;;
22812;SDS011;11573;51.334;3.244;2023-04-25T09:09:57;13.40;;;2.30;;
22812;SDS011;11573;51.334;3.244;2023-04-25T09:12:29;10.73;;;1.77;;
22812;SDS011;11573;51.334;3.244;2023-04-25T09:15:02;3.33;;;1.60;;
22812;SDS011;11573;51.334;3.244;2023-04-25T09:17:57;5.82;;;1.48;;
22812;SDS011;11573;51.334;3.244;2023-04-25T09:20:31;6.60;;;1.60;;
22812;SDS011;11573;51.334;3.244;2023-04-25T09:23:03;6.40;;;1.40;;
22812;SDS011;11573;51.334;3.244;2023-04-25T09:25:34;9.93;;;1.80;;
22812;SDS011;11573;51.334;3.244;2023-04-25T09:28:06;7.95;;;1.65;;
22812;SDS011;11573;51.334;3.244;2023-04-25T09:30:34;18.85;;;2.50;;
22812;SDS011;11573;51.334;3.244;2023-04-25T09:33:12;7.22;;;1.70;;
22812;SDS011;11573;51.334;3.244;2023-04-25T09:35:44;7.97;;;1.80;;
22812;SDS011;11573;51.334;3.244;2023-04-25T09:38:20;7.95;;;1.58;;
22812;SDS011;11573;51.334;3.244;2023-04-25T09:40:51;10.40;;;1.80;;
22812;SDS011;11573;51.334;3.244;2023-04-25T09:43:27;6.68;;;1.85;;
22812;SDS011;11573;51.334;3.244;2023-04-25T09:45:55;3.53;;;1.23;;
22812;SDS011;11573;51.334;3.244;2023-04-25T09:48:27;10.52;;;1.90;;
22812;SDS011;11573;51.334;3.244;2023-04-25T09:51:09;6.72;;;1.85;;
22812;SDS011;11573;51.334;3.244;2023-04-25T09:53:38;7.40;;;2.03;;
22812;SDS011;11573;51.334;3.244;2023-04-25T09:56:19;7.55;;;2.15;;
22812;SDS011;11573;51.334;3.244;2023-04-25T09:58:48;9.15;;;2.00;;
22812;SDS011;11573;51.334;3.244;2023-04-25T10:01:20;5.60;;;1.50;;
22812;SDS011;11573;51.334;3.244;2023-04-25T10:04:03;7.03;;;1.80;;
22812;SDS011;11573;51.334;3.244;2023-04-25T10:06:46;7.60;;;1.60;;
22812;SDS011;11573;51.334;3.244;2023-04-25T10:09:17;8.07;;;1.40;;
22812;SDS011;11573;51.334;3.244;2023-04-25T10:11:51;5.80;;;1.45;;
22812;SDS011;11573;51.334;3.244;2023-04-25T10:14:20;7.28;;;1.40;;
22812;SDS011;11573;51.334;3.244;2023-04-25T10:16:48;11.18;;;1.98;;
22812;SDS011;11573;51.334;3.244;2023-04-25T10:19:16;6.85;;;1.73;;
22812;SDS011;11573;51.334;3.244;2023-04-25T10:21:46;9.00;;;2.15;;
22812;SDS011;11573;51.334;3.244;2023-04-25T10:24:18;5.13;;;1.40;;
22812;SDS011;11573;51.334;3.244;2023-04-25T10:26:47;8.27;;;2.05;;
22812;SDS011;11573;51.334;3.244;2023-04-25T10:29:21;5.53;;;1.45;;
22812;SDS011;11573;51.334;3.244;2023-04-25T10:34:17;5.88;;;1.80;;
22812;SDS011;11573;51.334;3.244;2023-04-25T10:36:49;7.18;;;1.58;;
22812;SDS011;11573;51.334;3.244;2023-04-25T10:39:24;10.48;;;2.10;;
22812;SDS011;11573;51.334;3.244;2023-04-25T10:44:27;7.97;;;1.95;;
22812;SDS011;11573;51.334;3.244;2023-04-25T10:46:56;9.75;;;2.03;;
22812;SDS011;11573;51.334;3.244;2023-04-25T10:52:25;13.15;;;2.05;;
22812;SDS011;11573;51.334;3.244;2023-04-25T10:54:55;9.35;;;2.05;;
22812;SDS011;11573;51.334;3.244;2023-04-25T11:02:31;14.77;;;2.15;;
22812;SDS011;11573;51.334;3.244;2023-04-25T11:05:03;8.07;;;1.40;;
22812;SDS011;11573;51.334;3.244;2023-04-25T11:07:37;8.52;;;1.92;;
22812;SDS011;11573;51.334;3.244;2023-04-25T11:10:15;10.07;;;2.22;;
22812;SDS011;11573;51.334;3.244;2023-04-25T11:12:42;12.20;;;2.22;;
22812;SDS011;11573;51.334;3.244;2023-04-25T11:15:11;7.50;;;1.60;;
22812;SDS011;11573;51.334;3.244;2023-04-25T11:17:38;12.90;;;1.83;;
22812;SDS011;11573;51.334;3.244;2023-04-25T11:20:07;7.78;;;1.80;;
22812;SDS011;11573;51.334;3.244;2023-04-25T11:22:38;5.45;;;1.90;;
22812;SDS011;11573;51.334;3.244;2023-04-25T11:25:07;8.13;;;1.80;;
22812;SDS011;11573;51.334;3.244;2023-04-25T11:27:52;10.85;;;2.28;;
22812;SDS011;11573;51.334;3.244;2023-04-25T11:30:20;10.88;;;2.42;;
22812;SDS011;11573;51.334;3.244;2023-04-25T11:32:48;2.90;;;1.38;;
22812;SDS011;11573;51.334;3.244;2023-04-25T11:35:16;9.68;;;2.17;;
22812;SDS011;11573;51.334;3.244;2023-04-25T11:37:43;7.80;;;1.40;;
22812;SDS011;11573;51.334;3.244;2023-04-25T11:40:11;10.60;;;1.77;;
22812;SDS011;11573;51.334;3.244;2023-04-25T11:42:39;4.45;;;1.38;;
22812;SDS011;11573;51.334;3.244;2023-04-25T11:45:09;7.57;;;1.83;;
22812;SDS011;11573;51.334;3.244;2023-04-25T11:47:37;9.30;;;1.50;;
22812;SDS011;11573;51.334;3.244;2023-04-25T11:50:05;10.13;;;2.08;;
22812;SDS011;11573;51.334;3.244;2023-04-25T11:52:41;7.50;;;1.80;;
22812;SDS011;11573;51.334;3.244;2023-04-25T11:55:13;10.13;;;2.08;;
22812;SDS011;11573;51.334;3.244;2023-04-25T11:57:46;5.65;;;2.13;;
22812;SDS011;11573;51.334;3.244;2023-04-25T12:00:20;6.88;;;1.85;;
22812;SDS011;11573;51.334;3.244;2023-04-25T12:02:52;11.18;;;2.08;;
22812;SDS011;11573;51.334;3.244;2023-04-25T12:05:23;5.82;;;1.92;;
22812;SDS011;11573;51.334;3.244;2023-04-25T12:08:09;11.32;;;2.30;;
22812;SDS011;11573;51.334;3.244;2023-04-25T12:10:43;8.32;;;1.63;;
22812;SDS011;11573;51.334;3.244;2023-04-25T12:13:19;8.50;;;2.33;;
22812;SDS011;11573;51.334;3.244;2023-04-25T12:15:46;10.32;;;1.67;;
22812;SDS011;11573;51.334;3.244;2023-04-25T12:18:14;12.82;;;2.47;;
22812;SDS011;11573;51.334;3.244;2023-04-25T12:20:41;7.95;;;1.70;;
22812;SDS011;11573;51.334;3.244;2023-04-25T12:23:09;13.20;;;1.70;;
22812;SDS011;11573;51.334;3.244;2023-04-25T12:25:38;9.13;;;1.80;;
22812;SDS011;11573;51.334;3.244;2023-04-25T12:33:23;6.65;;;2.03;;
22812;SDS011;11573;51.334;3.244;2023-04-25T12:35:51;10.43;;;1.80;;
22812;SDS011;11573;51.334;3.244;2023-04-25T12:38:22;6.63;;;1.55;;
22812;SDS011;11573;51.334;3.244;2023-04-25T12:40:51;5.30;;;1.80;;
22812;SDS011;11573;51.334;3.244;2023-04-25T12:43:19;5.35;;;1.70;;
22812;SDS011;11573;51.334;3.244;2023-04-25T12:45:47;4.32;;;1.50;;
22812;SDS011;11573;51.334;3.244;2023-04-25T12:48:18;17.25;;;2.50;;
22812;SDS011;11573;51.334;3.244;2023-04-25T12:50:46;11.43;;;1.77;;
22812;SDS011;11573;51.334;3.244;2023-04-25T12:53:21;13.07;;;2.20;;
22812;SDS011;11573;51.334;3.244;2023-04-25T12:55:50;10.82;;;2.15;;
22812;SDS011;11573;51.334;3.244;2023-04-25T12:58:18;13.63;;;2.47;;
22812;SDS011;11573;51.334;3.244;2023-04-25T13:00:46;6.15;;;1.45;;
22812;SDS011;11573;51.334;3.244;2023-04-25T13:03:14;10.43;;;1.95;;
22812;SDS011;11573;51.334;3.244;2023-04-25T13:05:41;13.02;;;2.38;;
22812;SDS011;11573;51.334;3.244;2023-04-25T13:08:08;8.63;;;2.17;;
22812;SDS011;11573;51.334;3.244;2023-04-25T13:10:36;8.90;;;2.00;;
22812;SDS011;11573;51.334;3.244;2023-04-25T13:13:04;10.80;;;2.17;;
22812;SDS011;11573;51.334;3.244;2023-04-25T13:15:31;14.68;;;1.88;;
22812;SDS011;11573;51.334;3.244;2023-04-25T13:17:58;11.88;;;2.33;;
22812;SDS011;11573;51.334;3.244;2023-04-25T13:20:26;11.60;;;2.13;;
22812;SDS011;11573;51.334;3.244;2023-04-25T13:22:53;9.20;;;2.00;;
22812;SDS011;11573;51.334;3.244;2023-04-25T13:25:20;7.72;;;1.83;;
22812;SDS011;11573;51.334;3.244;2023-04-25T13:27:48;7.45;;;1.75;;
22812;SDS011;11573;51.334;3.244;2023-04-25T13:30:15;11.88;;;2.30;;
22812;SDS011;11573;51.334;3.244;2023-04-25T13:32:42;8.70;;;2.03;;
22812;SDS011;11573;51.334;3.244;2023-04-25T13:35:11;8.25;;;2.35;;
22812;SDS011;11573;51.334;3.244;2023-04-25T13:37:40;8.10;;;1.85;;
22812;SDS011;11573;51.334;3.244;2023-04-25T13:40:10;9.35;;;1.65;;
22812;SDS011;11573;51.334;3.244;2023-04-25T13:42:38;8.85;;;1.85;;
22812;SDS011;11573;51.334;3.244;2023-04-25T13:45:06;10.52;;;1.80;;
22812;SDS011;11573;51.334;3.244;2023-04-25T13:47:34;6.90;;;1.90;;
22812;SDS011;11573;51.334;3.244;2023-04-25T13:50:01;10.45;;;2.22;;
22812;SDS011;11573;51.334;3.244;2023-04-25T13:52:29;9.10;;;1.70;;
22812;SDS011;11573;51.334;3.244;2023-04-25T13:54:59;9.57;;;1.98;;
22812;SDS011;11573;51.334;3.244;2023-04-25T13:57:26;8.05;;;1.80;;
22812;SDS011;11573;51.334;3.244;2023-04-25T13:59:53;9.27;;;1.70;;
22812;SDS011;11573;51.334;3.244;2023-04-25T14:02:20;6.25;;;1.40;;
22812;SDS011;11573;51.334;3.244;2023-04-25T14:04:47;8.70;;;2.28;;
22812;SDS011;11573;51.334;3.244;2023-04-25T14:07:14;12.00;;;2.70;;
22812;SDS011;11573;51.334;3.244;2023-04-25T14:09:45;10.20;;;1.75;;
22812;SDS011;11573;51.334;3.244;2023-04-25T14:12:12;10.15;;;1.80;;
22812;SDS011;11573;51.334;3.244;2023-04-25T14:14:40;9.85;;;2.22;;
22812;SDS011;11573;51.334;3.244;2023-04-25T14:17:07;9.32;;;1.63;;
22812;SDS011;11573;51.334;3.244;2023-04-25T14:19:35;12.15;;;2.00;;
22812;SDS011;11573;51.334;3.244;2023-04-25T14:22:04;8.85;;;1.90;;
22812;SDS011;11573;51.334;3.244;2023-04-25T14:24:32;8.00;;;1.85;;
22812;SDS011;11573;51.334;3.244;2023-04-25T14:26:59;7.28;;;1.40;;
22812;SDS011;11573;51.334;3.244;2023-04-25T14:29:26;9.30;;;2.00;;
22812;SDS011;11573;51.334;3.244;2023-04-25T14:31:53;5.72;;;1.70;;
22812;SDS011;11573;51.334;3.244;2023-04-25T14:34:20;8.43;;;1.65;;
22812;SDS011;11573;51.334;3.244;2023-04-25T14:36:47;8.95;;;2.47;;
22812;SDS011;11573;51.334;3.244;2023-04-25T14:39:14;7.43;;;2.28;;
22812;SDS011;11573;51.334;3.244;2023-04-25T14:41:41;7.70;;;1.95;;
22812;SDS011;11573;51.334;3.244;2023-04-25T14:44:08;8.77;;;1.92;;
22812;SDS011;11573;51.334;3.244;2023-04-25T14:46:36;10.25;;;2.05;;
22812;SDS011;11573;51.334;3.244;2023-04-25T14:49:03;7.80;;;2.28;;
22812;SDS011;11573;51.334;3.244;2023-04-25T14:51:31;10.73;;;1.98;;
22812;SDS011;11573;51.334;3.244;2023-04-25T14:53:58;10.52;;;1.90;;
22812;SDS011;11573;51.334;3.244;2023-04-25T14:56:25;7.75;;;1.98;;
22812;SDS011;11573;51.334;3.244;2023-04-25T14:58:52;8.25;;;2.42;;
22812;SDS011;11573;51.334;3.244;2023-04-25T15:01:20;7.60;;;1.90;;
22812;SDS011;11573;51.334;3.244;2023-04-25T15:03:48;10.68;;;2.17;;
22812;SDS011;11573;51.334;3.244;2023-04-25T15:06:16;9.57;;;2.35;;
22812;SDS011;11573;51.334;3.244;2023-04-25T15:08:44;5.68;;;2.03;;
22812;SDS011;11573;51.334;3.244;2023-04-25T15:11:11;9.55;;;2.20;;
22812;SDS011;11573;51.334;3.244;2023-04-25T15:13:38;10.85;;;2.00;;
22812;SDS011;11573;51.334;3.244;2023-04-25T15:16:06;7.95;;;1.80;;
22812;SDS011;11573;51.334;3.244;2023-04-25T15:18:33;11.30;;;2.53;;